createdAt,value
2023-05-19T00:00:30.945Z,100830.09
2023-05-19T00:05:33.559Z,100833.53
2023-05-19T00:10:35.523Z,100829.53
2023-05-19T00:15:37.437Z,100820.53
2023-05-19T00:20:39.031Z,100828.78
2023-05-19T00:25:40.700Z,100830.31
2023-05-19T00:30:42.253Z,100831.88
2023-05-19T00:35:43.967Z,100830.63
2023-05-19T00:40:45.908Z,100817.59
2023-05-19T00:45:47.535Z,100824.78
2023-05-19T00:50:50.771Z,100818.88
2023-05-19T00:55:52.312Z,100821.69
2023-05-19T01:00:56.102Z,100826.81
2023-05-19T01:06:01.649Z,100831.66
2023-05-19T01:11:07.292Z,100830.66
2023-05-19T01:16:35.251Z,100827.56
2023-05-19T01:22:01.011Z,100829.75
2023-05-19T01:27:22.103Z,100815.66
2023-05-19T01:32:24.085Z,100812.56
2023-05-19T01:37:28.792Z,100824.56
2023-05-19T01:42:37.249Z,100816.69
2023-05-19T01:47:44.367Z,100818.28
2023-05-19T01:52:46.006Z,100815.03
2023-05-19T01:58:02.580Z,100822.75
2023-05-19T02:03:37.748Z,100827.13
2023-05-19T02:08:55.282Z,100823.09
2023-05-19T02:14:01.202Z,100827.72
2023-05-19T02:19:02.845Z,100832.22
2023-05-19T02:24:04.454Z,100840.19
2023-05-19T02:29:06.055Z,100835.41
2023-05-19T02:34:08.691Z,100832.41
2023-05-19T02:39:12.229Z,100828.63
2023-05-19T02:44:13.940Z,100821.03
2023-05-19T02:49:15.675Z,100817.97
2023-05-19T02:54:17.265Z,100827.31
2023-05-19T02:59:18.852Z,100818.97
2023-05-19T03:04:20.351Z,100814.94
2023-05-19T03:09:21.899Z,100808.19
2023-05-19T03:14:24.524Z,100815.34
2023-05-19T03:19:29.154Z,100812.63
2023-05-19T03:24:30.795Z,100809.91
2023-05-19T03:29:32.419Z,100814.28
2023-05-19T03:34:35.432Z,100823.50
2023-05-19T03:39:37.724Z,100819.06
2023-05-19T03:44:39.548Z,100824.34
2023-05-19T03:49:41.161Z,100821.41
2023-05-19T03:55:21.445Z,100833.72
2023-05-19T04:00:23.776Z,100831.38
2023-05-19T04:05:25.986Z,100837.28
2023-05-19T04:10:29.079Z,100837.75
2023-05-19T04:15:30.787Z,100840.00
2023-05-19T04:20:32.489Z,100843.22
2023-05-19T04:25:36.072Z,100845.78
2023-05-19T04:30:38.676Z,100848.72
2023-05-19T04:35:40.590Z,100858.72
2023-05-19T04:40:44.369Z,100851.34
2023-05-19T04:45:47.329Z,100857.97
2023-05-19T04:50:51.814Z,100854.50
2023-05-19T04:55:53.900Z,100859.59
2023-05-19T05:00:56.009Z,100858.13
2023-05-19T05:05:58.653Z,100861.00
2023-05-19T05:11:00.718Z,100866.28
2023-05-19T05:16:04.713Z,100860.75
2023-05-19T05:21:07.573Z,100858.16
2023-05-19T05:26:18.101Z,100861.53
2023-05-19T05:31:21.666Z,100850.41
2023-05-19T05:36:23.432Z,100856.69
2023-05-19T05:41:25.134Z,100845.56
2023-05-19T05:46:28.025Z,100846.19
2023-05-19T05:51:31.196Z,100849.81
2023-05-19T05:56:33.894Z,100844.56
2023-05-19T06:01:36.698Z,100837.44
2023-05-19T06:06:41.085Z,100839.28
2023-05-19T06:11:43.594Z,100836.28
2023-05-19T06:16:48.002Z,100833.50
2023-05-19T06:21:51.947Z,100826.03
2023-05-19T06:26:53.695Z,100815.59
2023-05-19T06:31:55.753Z,100820.06
2023-05-19T06:36:57.561Z,100814.22
2023-05-19T06:41:59.902Z,100830.44
2023-05-19T06:47:21.379Z,100822.69
2023-05-19T06:52:23.736Z,100821.50
2023-05-19T06:57:25.783Z,100820.38
2023-05-19T07:02:30.617Z,100816.16
2023-05-19T07:07:32.470Z,100814.03
2023-05-19T07:12:37.556Z,100799.31
2023-05-19T07:17:41.352Z,100798.22
2023-05-19T07:22:43.463Z,100799.03
2023-05-19T07:27:45.876Z,100800.78
2023-05-19T07:32:47.454Z,100789.63
2023-05-19T07:37:49.665Z,100768.47
2023-05-19T07:42:51.321Z,100768.63
2023-05-19T07:47:53.970Z,100782.50
2023-05-19T07:52:56.138Z,100765.50
2023-05-19T07:57:57.792Z,100768.25
2023-05-19T08:03:00.084Z,100757.28
2023-05-19T08:08:03.000Z,100756.44
2023-05-19T08:13:05.197Z,100753.75
2023-05-19T08:18:06.885Z,100740.88
2023-05-19T08:23:08.426Z,100734.81
2023-05-19T08:28:10.274Z,100738.25
2023-05-19T08:33:12.014Z,100734.22
2023-05-19T08:38:13.660Z,100733.19
2023-05-19T08:43:15.472Z,100725.25
2023-05-19T08:48:18.551Z,100722.00
2023-05-19T08:53:33.025Z,100741.88
2023-05-19T08:58:35.521Z,100725.63
2023-05-19T09:03:41.080Z,100708.38
2023-05-19T09:08:44.174Z,100700.22
2023-05-19T09:13:46.113Z,100689.22
2023-05-19T09:18:56.224Z,100705.25
2023-05-19T09:23:59.305Z,100696.97
2023-05-19T09:29:01.073Z,100684.91
2023-05-19T09:34:02.709Z,100687.84
2023-05-19T09:39:13.118Z,100678.78
2023-05-19T09:44:21.027Z,100675.88
2023-05-19T09:49:31.161Z,100673.34
2023-05-19T09:54:34.060Z,100677.94
2023-05-19T09:59:39.090Z,100676.34
2023-05-19T10:04:42.227Z,100675.53
2023-05-19T10:09:44.865Z,100681.34
2023-05-19T10:14:47.788Z,100672.19
2023-05-19T10:19:50.782Z,100658.41
2023-05-19T10:24:52.321Z,100670.38
2023-05-19T10:29:56.580Z,100662.03
2023-05-19T10:35:23.429Z,100670.81
2023-05-19T10:40:33.188Z,100655.56
2023-05-19T10:45:40.606Z,100661.38
2023-05-19T10:50:45.769Z,100661.88
2023-05-19T10:55:55.909Z,100662.94
2023-05-19T11:01:01.515Z,100659.44
2023-05-19T11:06:24.841Z,100652.22
2023-05-19T11:11:27.197Z,100649.16
2023-05-19T11:16:29.998Z,100651.13
2023-05-19T11:22:22.836Z,100666.97
2023-05-19T11:27:28.822Z,100647.09
2023-05-19T11:32:33.674Z,100635.97
2023-05-19T11:37:36.002Z,100628.28
2023-05-19T11:42:37.681Z,100630.81
2023-05-19T11:47:56.503Z,100640.00
2023-05-19T11:53:01.920Z,100639.16
2023-05-19T11:58:05.820Z,100646.13
2023-05-19T12:03:09.119Z,100648.03
2023-05-19T12:08:11.921Z,100645.00
2023-05-19T12:13:14.646Z,100658.31
2023-05-19T12:18:16.210Z,100662.13
2023-05-19T12:23:18.021Z,100665.91
2023-05-19T12:28:20.096Z,100674.69
2023-05-19T12:33:22.836Z,100678.19
2023-05-19T12:38:24.386Z,100680.66
2023-05-19T12:43:25.948Z,100679.31
2023-05-19T12:48:28.576Z,100676.44
2023-05-19T12:53:30.171Z,100682.31
2023-05-19T12:58:34.353Z,100694.91
2023-05-19T13:03:43.644Z,100684.19
2023-05-19T13:08:47.272Z,100677.88
2023-05-19T13:13:48.886Z,100661.03
2023-05-19T13:18:51.530Z,100668.31
2023-05-19T13:23:53.403Z,100657.78
2023-05-19T13:28:57.300Z,100664.00
2023-05-19T13:33:58.868Z,100663.22
2023-05-19T13:39:01.246Z,100654.63
2023-05-19T13:44:02.796Z,100652.16
2023-05-19T13:49:04.349Z,100645.53
2023-05-19T13:54:05.878Z,100638.56
2023-05-19T13:59:07.788Z,100645.75
2023-05-19T14:04:10.643Z,100645.50
2023-05-19T14:09:13.241Z,100635.84
2023-05-19T14:14:14.881Z,100627.25
2023-05-19T14:19:16.498Z,100623.06
2023-05-19T14:24:18.294Z,100617.22
2023-05-19T14:29:20.173Z,100611.13
2023-05-19T14:34:21.813Z,100608.91
2023-05-19T14:39:23.429Z,100601.16
2023-05-19T14:44:29.819Z,100609.44
2023-05-19T14:49:31.388Z,100619.53
2023-05-19T14:54:33.850Z,100621.53
2023-05-19T14:59:38.854Z,100611.03
2023-05-19T15:04:40.528Z,100617.50
2023-05-19T15:09:42.123Z,100610.03
2023-05-19T15:14:43.799Z,100617.25
2023-05-19T15:19:45.420Z,100601.16
2023-05-19T15:24:47.064Z,100618.06
2023-05-19T15:29:48.635Z,100608.94
2023-05-19T15:34:50.259Z,100609.75
2023-05-19T15:39:51.911Z,100603.63
2023-05-19T15:44:53.528Z,100598.84
2023-05-19T15:49:55.114Z,100597.38
2023-05-19T15:54:59.116Z,100600.66
2023-05-19T16:00:01.018Z,100615.31
2023-05-19T16:05:02.631Z,100599.47
2023-05-19T16:10:04.523Z,100603.69
2023-05-19T16:15:06.612Z,100592.94
2023-05-19T16:20:08.791Z,100581.03
2023-05-19T16:25:10.709Z,100583.50
2023-05-19T16:30:12.867Z,100571.31
2023-05-19T16:35:14.591Z,100565.78
2023-05-19T16:40:16.219Z,100564.72
2023-05-19T16:45:17.870Z,100558.88
2023-05-19T16:50:19.442Z,100561.16
2023-05-19T16:55:22.615Z,100555.56
2023-05-19T17:00:24.281Z,100563.81
2023-05-19T17:05:27.221Z,100562.69
2023-05-19T17:10:28.785Z,100565.06
2023-05-19T17:15:30.415Z,100568.28
2023-05-19T17:20:32.157Z,100573.13
2023-05-19T17:25:34.667Z,100571.88
2023-05-19T17:30:36.570Z,100564.63
2023-05-19T17:35:38.464Z,100567.84
2023-05-19T17:40:41.961Z,100566.63
2023-05-19T17:45:43.784Z,100561.03
2023-05-19T17:50:49.341Z,100562.34
2023-05-19T17:55:52.963Z,100559.19
2023-05-19T18:00:55.362Z,100559.13
2023-05-19T18:05:57.007Z,100557.41
2023-05-19T18:10:58.840Z,100563.38
2023-05-19T18:16:00.489Z,100567.50
2023-05-19T18:21:02.055Z,100552.56
2023-05-19T18:26:03.756Z,100554.50
2023-05-19T18:31:06.326Z,100546.47
2023-05-19T18:36:08.477Z,100555.75
2023-05-19T18:41:10.491Z,100552.13
2023-05-19T18:46:13.418Z,100547.25
2023-05-19T18:51:15.809Z,100549.63
2023-05-19T18:56:28.216Z,100546.53
2023-05-19T19:01:29.902Z,100542.44
2023-05-19T19:06:31.830Z,100544.28
2023-05-19T19:11:33.454Z,100554.00
2023-05-19T19:16:35.120Z,100562.63
2023-05-19T19:21:36.822Z,100567.28
2023-05-19T19:26:38.549Z,100565.47
2023-05-19T19:31:40.169Z,100567.09
2023-05-19T19:36:44.875Z,100572.66
2023-05-19T19:41:46.479Z,100573.47
2023-05-19T19:46:48.396Z,100580.06
2023-05-19T19:51:50.106Z,100573.25
2023-05-19T19:56:51.742Z,100576.13
2023-05-19T20:01:53.515Z,100574.81
2023-05-19T20:06:55.077Z,100575.41
2023-05-19T20:11:56.632Z,100573.72
2023-05-19T20:16:58.205Z,100565.84
2023-05-19T20:22:02.645Z,100566.41
2023-05-19T20:27:04.304Z,100565.81
2023-05-19T20:32:06.244Z,100552.31
2023-05-19T20:37:07.916Z,100552.34
2023-05-19T20:42:09.739Z,100545.28
2023-05-19T20:47:11.540Z,100548.72
2023-05-19T20:52:13.116Z,100548.81
2023-05-19T20:57:14.753Z,100536.50
2023-05-19T21:02:16.327Z,100538.19
2023-05-19T21:07:17.979Z,100539.75
2023-05-19T21:12:23.786Z,100532.00
2023-05-19T21:17:25.447Z,100528.53
2023-05-19T21:22:27.748Z,100529.63
2023-05-19T21:27:29.468Z,100526.78
2023-05-19T21:32:31.179Z,100520.81
2023-05-19T21:37:32.725Z,100522.34
2023-05-19T21:42:35.285Z,100519.00
2023-05-19T21:47:36.882Z,100515.94
2023-05-19T21:52:38.621Z,100508.03
2023-05-19T21:57:40.497Z,100513.78
2023-05-19T22:02:42.232Z,100511.03
2023-05-19T22:07:43.961Z,100503.00
2023-05-19T22:12:45.521Z,100507.66
2023-05-19T22:17:47.194Z,100507.75
2023-05-19T22:22:48.739Z,100501.31
2023-05-19T22:27:50.460Z,100501.19
2023-05-19T22:32:52.120Z,100500.34
2023-05-19T22:37:53.689Z,100485.41
2023-05-19T22:42:55.209Z,100488.50
2023-05-19T22:47:59.256Z,100486.25
2023-05-19T22:53:00.848Z,100473.69
2023-05-19T22:58:02.502Z,100472.72
2023-05-19T23:03:04.155Z,100479.69
2023-05-19T23:08:05.991Z,100474.66
2023-05-19T23:13:09.501Z,100464.38
2023-05-19T23:18:11.589Z,100461.38
2023-05-19T23:23:13.344Z,100472.47
2023-05-19T23:28:14.913Z,100468.22
2023-05-19T23:33:16.457Z,100460.94
2023-05-19T23:38:18.018Z,100462.38
2023-05-19T23:43:19.544Z,100462.91
2023-05-19T23:48:21.160Z,100455.84
2023-05-19T23:53:22.723Z,100449.75
2023-05-19T23:58:24.344Z,100457.69
